Terminal Aerodrome Forecast
Issued by NWS Chicago, IL

Home | Current Version | Previous Version | Text Only | Print | Product List | Glossary Off
Versions: 1 2 3 4 5 6 7 8 9 10 11 12 13 14 15 16 17 18 19 20 21 22 23 24 25 26 27

615
FTUS43 KLOT 280911 AAA
TAFRFD
TAF AMD
KRFD 280911Z 2809/2906 VRB03KT P6SM FEW060 FEW250
      TEMPO 2810/2812 3SM BR
     FM281200 03004KT P6SM SCT060
     FM281500 07007KT P6SM VCSH SCT030 BKN080
     FM290000 04008KT P6SM SCT030 BKN080=

USA.gov is the U.S. government's official web portal to all federal, state and local government web resources and services.